createdAt,value
2019-01-29T00:03:18.771Z,0.80
2019-01-29T00:08:25.779Z,0.80
2019-01-29T00:13:32.916Z,0.80
2019-01-29T00:18:39.962Z,0.80
2019-01-29T00:23:47.118Z,0.70
2019-01-29T00:28:54.278Z,0.70
2019-01-29T00:34:02.230Z,0.60
2019-01-29T00:39:10.248Z,0.60
2019-01-29T00:44:17.449Z,0.50
2019-01-29T00:49:24.578Z,0.50
2019-01-29T00:54:31.662Z,0.50
2019-01-29T00:59:39.235Z,0.40
2019-01-29T01:04:46.805Z,0.40
2019-01-29T01:09:57.288Z,0.40
2019-01-29T01:15:03.944Z,0.40
2019-01-29T01:20:13.535Z,0.60
2019-01-29T01:25:22.512Z,0.60
2019-01-29T01:30:29.814Z,0.60
2019-01-29T01:35:36.925Z,0.60
2019-01-29T01:40:43.972Z,0.60
2019-01-29T01:45:50.983Z,0.50
2019-01-29T01:50:59.175Z,0.50
2019-01-29T01:56:06.554Z,0.50
2019-01-29T02:01:14.711Z,0.40
2019-01-29T02:06:22.216Z,0.40
2019-01-29T02:11:29.301Z,0.50
2019-01-29T02:16:36.426Z,0.50
2019-01-29T02:21:43.504Z,0.50
2019-01-29T02:26:50.704Z,0.50
2019-01-29T02:31:58.150Z,0.50
2019-01-29T02:37:05.983Z,0.60
2019-01-29T02:42:13.214Z,0.50
2019-01-29T02:47:20.254Z,0.50
2019-01-29T02:52:27.923Z,0.50
2019-01-29T02:57:35.023Z,0.50
2019-01-29T03:02:42.223Z,0.50
2019-01-29T03:07:49.446Z,0.50
2019-01-29T03:12:57.680Z,0.50
2019-01-29T03:18:04.776Z,0.50
2019-01-29T03:23:11.974Z,0.50
2019-01-29T03:28:19.073Z,0.50
2019-01-29T03:33:26.254Z,0.50
2019-01-29T03:38:34.604Z,0.50
2019-01-29T03:43:41.695Z,0.50
2019-01-29T03:48:48.905Z,0.50
2019-01-29T03:53:55.895Z,0.60
2019-01-29T03:59:03.025Z,0.60
2019-01-29T04:04:10.462Z,0.60
2019-01-29T04:09:17.850Z,0.60
2019-01-29T04:14:25.339Z,0.60
2019-01-29T04:19:32.650Z,0.60
2019-01-29T04:24:39.741Z,0.60
2019-01-29T04:29:47.849Z,0.60
2019-01-29T04:34:54.845Z,0.60
2019-01-29T04:40:01.972Z,0.50
2019-01-29T04:45:11.984Z,0.50
2019-01-29T04:50:21.041Z,0.50
2019-01-29T04:55:28.108Z,0.50
2019-01-29T05:00:35.221Z,0.50
2019-01-29T05:05:42.321Z,0.50
2019-01-29T05:10:49.955Z,0.40
2019-01-29T05:15:57.096Z,0.40
2019-01-29T05:21:04.189Z,0.40
2019-01-29T05:26:11.305Z,0.40
2019-01-29T05:31:18.565Z,0.40
2019-01-29T05:36:25.576Z,0.40
2019-01-29T05:41:32.665Z,0.40
2019-01-29T05:46:40.023Z,0.30
2019-01-29T05:51:47.234Z,0.30
2019-01-29T05:56:54.366Z,0.30
2019-01-29T06:02:01.816Z,0.30
2019-01-29T06:07:08.915Z,0.30
2019-01-29T06:12:16.235Z,0.30
2019-01-29T06:17:27.516Z,0.30
2019-01-29T06:22:32.948Z,0.30
2019-01-29T06:27:40.562Z,0.30
2019-01-29T06:32:47.659Z,0.40
2019-01-29T06:37:54.713Z,0.40
2019-01-29T06:43:02.013Z,0.40
2019-01-29T06:48:09.226Z,0.40
2019-01-29T06:53:16.332Z,0.50
2019-01-29T06:58:24.674Z,0.40
2019-01-29T07:03:31.801Z,0.50
2019-01-29T07:08:38.851Z,0.50
2019-01-29T07:13:46.077Z,0.60
2019-01-29T07:19:06.066Z,0.60
2019-01-29T07:24:13.063Z,0.60
2019-01-29T07:29:20.695Z,0.60
2019-01-29T07:34:27.799Z,0.70
2019-01-29T07:39:34.931Z,0.60
2019-01-29T07:44:43.295Z,0.70
2019-01-29T07:49:50.396Z,0.70
2019-01-29T07:54:57.495Z,0.80
2019-01-29T08:00:06.885Z,0.80
2019-01-29T08:05:15.004Z,0.90
2019-01-29T08:10:22.117Z,1.00
2019-01-29T08:15:29.241Z,1.00
2019-01-29T08:20:36.350Z,1.10
2019-01-29T08:25:47.998Z,1.20
2019-01-29T08:30:52.210Z,1.20
2019-01-29T08:35:59.223Z,1.30
2019-01-29T08:41:06.653Z,1.40
2019-01-29T08:46:13.875Z,1.50
2019-01-29T08:51:21.017Z,1.70
2019-01-29T08:56:28.244Z,1.80
2019-01-29T09:01:35.665Z,2.00
2019-01-29T09:06:42.920Z,2.10
2019-01-29T09:11:50.147Z,2.20
2019-01-29T09:16:57.449Z,2.30
2019-01-29T09:22:04.540Z,2.40
2019-01-29T09:27:12.151Z,2.40
2019-01-29T09:32:22.488Z,2.30
2019-01-29T09:37:29.586Z,2.10
2019-01-29T09:42:36.755Z,2.00
2019-01-29T09:47:44.394Z,2.00
2019-01-29T09:52:51.927Z,2.00
2019-01-29T09:57:59.028Z,2.00
2019-01-29T10:03:06.612Z,2.00
2019-01-29T10:08:14.737Z,2.00
2019-01-29T10:13:23.202Z,2.00
2019-01-29T10:18:30.793Z,1.90
2019-01-29T10:23:37.924Z,2.00
2019-01-29T10:28:45.838Z,2.00
2019-01-29T10:33:54.461Z,2.10
2019-01-29T10:39:01.572Z,2.00
2019-01-29T10:44:10.239Z,2.00
2019-01-29T10:49:17.293Z,2.00
2019-01-29T10:54:25.929Z,2.10
2019-01-29T10:59:33.095Z,2.10
2019-01-29T11:04:40.873Z,2.10
2019-01-29T11:09:48.537Z,2.10
2019-01-29T11:14:55.788Z,2.20
2019-01-29T11:20:03.144Z,2.20
2019-01-29T11:25:14.656Z,2.30
2019-01-29T11:30:24.303Z,2.20
2019-01-29T11:35:31.516Z,2.20
2019-01-29T11:40:38.699Z,2.20
2019-01-29T11:45:49.015Z,2.10
2019-01-29T11:50:56.420Z,2.10
2019-01-29T11:56:04.694Z,2.20
2019-01-29T12:01:14.464Z,2.20
2019-01-29T12:06:21.676Z,2.20
2019-01-29T12:11:28.974Z,2.20
2019-01-29T12:16:36.313Z,2.10
2019-01-29T12:21:43.577Z,2.10
2019-01-29T12:26:50.773Z,2.00
2019-01-29T12:31:58.241Z,2.00
2019-01-29T12:37:06.366Z,2.00
2019-01-29T12:42:14.891Z,2.10
2019-01-29T12:47:22.196Z,2.10
2019-01-29T12:52:51.315Z,2.00
2019-01-29T12:57:58.436Z,2.10
2019-01-29T13:03:06.280Z,2.00
2019-01-29T13:08:13.612Z,1.70
2019-01-29T13:13:20.888Z,1.70
2019-01-29T13:18:29.214Z,1.70
2019-01-29T13:23:36.669Z,1.70
2019-01-29T13:28:43.924Z,1.80
2019-01-29T13:33:52.054Z,1.70
2019-01-29T13:39:00.422Z,1.50
2019-01-29T13:44:07.624Z,1.40
2019-01-29T13:49:14.852Z,1.40
2019-01-29T13:54:23.864Z,1.30
2019-01-29T13:59:30.769Z,1.20
2019-01-29T14:04:37.862Z,1.10
2019-01-29T14:09:45.288Z,1.00
2019-01-29T14:14:52.379Z,0.90
2019-01-29T14:19:59.637Z,0.90
2019-01-29T14:25:07.194Z,0.80
2019-01-29T14:30:17.088Z,0.80
2019-01-29T14:35:24.429Z,0.70
2019-01-29T14:40:31.747Z,0.70
2019-01-29T14:45:38.896Z,0.70
2019-01-29T14:50:48.443Z,0.60
2019-01-29T14:55:55.658Z,0.60
2019-01-29T15:01:04.774Z,0.50
2019-01-29T15:06:12.460Z,0.50
2019-01-29T15:11:21.126Z,0.50
2019-01-29T15:16:53.309Z,0.50
2019-01-29T15:22:00.810Z,0.40
2019-01-29T15:27:08.416Z,0.40
2019-01-29T15:32:15.786Z,0.40
2019-01-29T15:37:22.936Z,0.30
2019-01-29T15:42:30.277Z,0.10
2019-01-29T15:47:37.616Z,0.00
2019-01-29T15:52:48.594Z,-0.20
2019-01-29T15:57:53.707Z,-0.20
2019-01-29T16:03:00.931Z,-0.20
2019-01-29T16:08:08.761Z,-0.20
2019-01-29T16:13:15.872Z,-0.30
2019-01-29T16:18:23.129Z,-0.30
2019-01-29T16:23:30.246Z,-0.30
2019-01-29T16:28:37.563Z,-0.40
2019-01-29T16:33:44.798Z,-0.40
2019-01-29T16:38:53.731Z,-0.30
2019-01-29T16:44:01.047Z,-0.40
2019-01-29T16:49:08.207Z,-0.40
2019-01-29T16:54:15.329Z,-0.40
2019-01-29T16:59:22.540Z,-0.40
2019-01-29T17:04:29.741Z,-0.40
2019-01-29T17:09:37.335Z,-0.40
2019-01-29T17:14:44.548Z,-0.50
2019-01-29T17:19:51.825Z,-0.50
2019-01-29T17:24:59.662Z,-0.50
2019-01-29T17:30:09.251Z,-0.60
2019-01-29T17:35:16.587Z,-0.60
2019-01-29T17:40:24.104Z,-0.60
2019-01-29T17:45:38.268Z,-0.60
2019-01-29T17:50:46.179Z,-0.60
2019-01-29T17:55:53.333Z,-0.70
2019-01-29T18:01:02.590Z,-0.80
2019-01-29T18:06:09.830Z,-0.70
2019-01-29T18:11:17.215Z,-0.80
2019-01-29T18:16:24.468Z,-0.90
2019-01-29T18:21:32.072Z,-1.00
2019-01-29T18:26:39.565Z,-1.10
2019-01-29T18:31:46.779Z,-1.20
2019-01-29T18:36:54.351Z,-1.40
2019-01-29T18:42:01.824Z,-1.50
2019-01-29T18:47:10.332Z,-1.50
2019-01-29T18:52:17.583Z,-1.60
2019-01-29T18:57:25.494Z,-1.70
2019-01-29T19:02:32.698Z,-1.60
2019-01-29T19:07:40.515Z,-1.50
2019-01-29T19:12:49.767Z,-1.50
2019-01-29T19:17:58.595Z,-1.40
2019-01-29T19:23:06.183Z,-1.40
2019-01-29T19:28:21.749Z,-1.30
2019-01-29T19:33:22.607Z,-1.20
2019-01-29T19:38:31.934Z,-1.20
2019-01-29T19:43:39.800Z,-1.10
2019-01-29T19:48:47.266Z,-1.10
2019-01-29T19:53:55.002Z,-1.10
2019-01-29T19:59:02.334Z,-1.00
2019-01-29T20:04:09.775Z,-1.00
2019-01-29T20:09:18.235Z,-0.90
2019-01-29T20:14:26.238Z,-0.90
2019-01-29T20:19:33.752Z,-0.90
2019-01-29T20:24:42.163Z,-0.90
2019-01-29T20:29:49.736Z,-0.90
2019-01-29T20:34:56.999Z,-0.90
2019-01-29T20:40:05.376Z,-1.00
2019-01-29T20:45:13.127Z,-1.00
2019-01-29T20:50:23.959Z,-1.10
2019-01-29T20:55:31.444Z,-1.00
2019-01-29T21:00:40.460Z,-0.90
2019-01-29T21:05:47.810Z,-1.00
2019-01-29T21:10:55.591Z,-1.00
2019-01-29T21:16:03.858Z,-1.00
2019-01-29T21:21:11.034Z,-0.90
2019-01-29T21:26:18.312Z,-1.00
2019-01-29T21:31:25.607Z,-0.90
2019-01-29T21:36:32.831Z,-0.90
2019-01-29T21:41:40.048Z,-0.90
2019-01-29T21:46:47.366Z,-0.90
2019-01-29T21:51:54.546Z,-0.90
2019-01-29T21:57:02.024Z,-0.90
2019-01-29T22:02:09.258Z,-0.90
2019-01-29T22:07:16.510Z,-0.90
2019-01-29T22:12:25.017Z,-0.90
2019-01-29T22:17:32.876Z,-0.90
2019-01-29T22:22:40.038Z,-0.90
2019-01-29T22:27:47.520Z,-0.80
2019-01-29T22:32:54.949Z,-0.80
2019-01-29T22:38:02.125Z,-0.80
2019-01-29T22:43:09.428Z,-0.70
2019-01-29T22:48:18.953Z,-0.70
2019-01-29T22:53:26.475Z,-0.70
2019-01-29T22:58:33.746Z,-0.70
2019-01-29T23:03:44.039Z,-0.60
2019-01-29T23:08:51.477Z,-0.70
2019-01-29T23:13:58.860Z,-0.70
2019-01-29T23:19:06.768Z,-0.60
2019-01-29T23:24:15.145Z,-0.60
2019-01-29T23:29:23.436Z,-0.60
2019-01-29T23:34:30.634Z,-0.50
2019-01-29T23:39:39.109Z,-0.60
2019-01-29T23:44:46.415Z,-0.60
2019-01-29T23:49:53.720Z,-0.50
2019-01-29T23:55:00.895Z,-0.50
